LTFJ/SAW METAR and TAF weather

Enter ICAO airport designator
Station Type Date Time Source
LTFJ METAR 2022/12/04 05:50 UTC NOAA

LTFJ 040550Z 03009KT 9999 FEW009 BKN033 10/10 Q1027 NOSIG


Station Type Date Time Source
LTFJ Decoded METAR 2022/12/04 05:50 UTC NOAA

Istanbul / Sabiha Gokcen, Turkey (LTFJ) 40-53-55N 029-18-33E
Dec 04, 2022 - 12:50 AM EST / 2022.12.04 0550 UTC
Wind: from the NNE (030 degrees) at 10 MPH (9 KT):0
Visibility: greater than 7 mile(s):0
Sky conditions: mostly cloudy
Temperature: 50 F (10 C)
Dew Point: 50 F (10 C)
Relative Humidity: 100%
Pressure (altimeter): 30.33 in. Hg (1027 hPa)
ob: LTFJ 040550Z 03009KT 9999 FEW009 BKN033 10/10 Q1027 NOSIG
cycle: 6

Station Type Date Time Source
LTFJ TAF 2022/12/04 06:03 UTC NOAA

TAF LTFJ 040440Z 0406/0506 03012KT 9999 SCT012 BKN030
BECMG 0406/0409 SCT035 BKN100
TEMPO 0411/0415 03017G27KT
BECMG 0418/0421 SCT009 BKN025

Example: see airport list